Time;durP1;ratioP1;P1;durP2;ratioP2;P2;SDS_P1;SDS_P2;PMS_P1;PMS_P2;Temp;Humidity;BMP_temperature;BMP_pressure;BME280_temperature;BME280_humidity;BME280_pressure;Samples;Min_cycle;Max_cycle;Signal;HPM_P1;HPM_P2
2022/03/03 00:00:18;;;;;;;28.00;18.42;;;;;;;-2.97;67.29;101690.06;7393637;19;20019;-65
2022/03/03 00:02:46;;;;;;;34.45;19.88;;;;;;;-2.97;67.57;101695.22;7395613;19;20019;-66
2022/03/03 00:05:15;;;;;;;35.90;22.80;;;;;;;-2.98;67.32;101692.56;7393261;19;20015;-65
2022/03/03 00:07:44;;;;;;;31.35;18.73;;;;;;;-3.00;67.46;101677.06;7393058;19;20493;-65
2022/03/03 00:10:13;;;;;;;31.23;17.75;;;;;;;-3.03;67.39;101679.50;7393319;19;20035;-65
2022/03/03 00:12:44;;;;;;;30.33;18.30;;;;;;;-3.05;67.66;101682.81;7393251;19;20035;-65
2022/03/03 00:15:12;;;;;;;27.55;18.17;;;;;;;-3.06;67.79;101686.16;7394843;19;20019;-65
2022/03/03 00:17:40;;;;;;;28.55;19.70;;;;;;;-3.08;67.56;101686.09;7394954;19;20037;-65
2022/03/03 00:20:09;;;;;;;32.45;19.35;;;;;;;-3.09;67.81;101686.03;7394324;19;20479;-66
2022/03/03 00:22:37;;;;;;;31.75;19.08;;;;;;;-3.10;68.05;101697.97;7392922;19;20023;-65
2022/03/03 00:25:07;;;;;;;30.05;19.75;;;;;;;-3.12;68.20;101689.34;7393822;19;20026;-65
2022/03/03 00:27:35;;;;;;;32.03;20.00;;;;;;;-3.17;68.32;101688.19;7392775;19;20021;-65
2022/03/03 00:30:07;;;;;;;34.63;20.63;;;;;;;-3.13;68.53;101688.44;7392562;19;20018;-65
2022/03/03 00:32:40;;;;;;;32.58;19.83;;;;;;;-3.13;68.58;101682.44;7394644;19;20399;-65
2022/03/03 00:35:09;;;;;;;28.83;18.00;;;;;;;-3.13;68.26;101685.00;7392702;19;20030;-65
2022/03/03 00:37:38;;;;;;;31.45;18.73;;;;;;;-3.14;68.60;101675.53;7394386;19;20018;-65
2022/03/03 00:40:07;;;;;;;31.70;19.23;;;;;;;-3.16;68.64;101670.31;7393876;19;20527;-65
2022/03/03 00:42:35;;;;;;;30.38;18.00;;;;;;;-3.17;68.62;101672.78;7392257;19;20018;-65
2022/03/03 00:45:07;;;;;;;47.13;29.60;;;;;;;-3.18;68.84;101683.91;7391788;19;20023;-65
2022/03/03 00:47:35;;;;;;;68.22;39.33;;;;;;;-3.21;68.69;101679.50;7394448;19;20031;-65
2022/03/03 00:50:03;;;;;;;83.22;48.83;;;;;;;-3.22;68.89;101680.28;7391952;19;20019;-65
2022/03/03 00:52:32;;;;;;;58.20;32.70;;;;;;;-3.23;68.86;101682.78;7391116;19;20381;-65
2022/03/03 00:55:00;;;;;;;50.08;29.67;;;;;;;-3.24;68.70;101684.44;7393379;19;20022;-65
2022/03/03 00:57:29;;;;;;;34.85;22.33;;;;;;;-3.25;68.92;101680.13;7393846;19;20388;-65
2022/03/03 00:59:57;;;;;;;33.67;20.08;;;;;;;-3.25;68.93;101674.13;7392611;19;20018;-65
2022/03/03 01:02:27;;;;;;;30.23;18.98;;;;;;;-3.26;69.09;101680.94;7398579;19;20018;-65
2022/03/03 01:04:56;;;;;;;29.05;18.52;;;;;;;-3.27;69.29;101682.63;7397959;19;20401;-65
2022/03/03 01:07:24;;;;;;;26.27;18.45;;;;;;;-3.27;69.29;101672.34;7398387;19;20023;-65
2022/03/03 01:09:52;;;;;;;26.85;18.30;;;;;;;-3.28;69.25;101669.72;7400831;19;20027;-65
2022/03/03 01:12:20;;;;;;;27.13;16.75;;;;;;;-3.28;69.46;101664.59;7398208;19;20018;-65
2022/03/03 01:14:49;;;;;;;26.67;16.58;;;;;;;-3.31;69.64;101661.84;7400012;19;20420;-65
2022/03/03 01:17:18;;;;;;;27.33;16.58;;;;;;;-3.28;69.42;101662.00;7398143;19;20014;-65
2022/03/03 01:19:49;;;;;;;29.15;17.48;;;;;;;-3.30;69.48;101650.78;7400656;19;20031;-65
2022/03/03 01:22:18;;;;;;;29.90;17.30;;;;;;;-3.30;69.54;101659.38;7397765;19;20389;-66
2022/03/03 01:24:47;;;;;;;29.30;17.45;;;;;;;-3.29;69.35;101657.69;7397828;19;20038;-65
2022/03/03 01:27:15;;;;;;;24.70;16.20;;;;;;;-3.30;69.36;101654.25;7397739;19;20026;-65
2022/03/03 01:29:44;;;;;;;28.05;16.35;;;;;;;-3.30;69.60;101666.19;7397726;19;20031;-65
2022/03/03 01:32:12;;;;;;;25.80;15.85;;;;;;;-3.29;69.66;101660.25;7397786;19;20022;-66
2022/03/03 01:34:41;;;;;;;29.00;17.58;;;;;;;-3.30;69.70;101661.03;7397540;19;20018;-65
2022/03/03 01:37:12;;;;;;;26.60;16.75;;;;;;;-3.29;69.71;101667.94;7397184;19;20482;-65
2022/03/03 01:39:40;;;;;;;31.58;16.33;;;;;;;-3.30;70.01;101666.19;7397935;19;20015;-65
2022/03/03 01:42:09;;;;;;;27.13;16.67;;;;;;;-3.31;69.75;101656.72;7400572;19;20039;-65
2022/03/03 01:44:37;;;;;;;28.05;15.85;;;;;;;-3.32;69.66;101663.53;7399382;19;20018;-66
2022/03/03 01:47:06;;;;;;;24.35;16.58;;;;;;;-3.34;69.87;101654.88;7397252;19;20022;-65
2022/03/03 01:49:34;;;;;;;31.48;17.15;;;;;;;-3.34;69.94;101659.13;7396935;19;20388;-65
2022/03/03 01:52:09;;;;;;;29.80;17.92;;;;;;;-3.36;70.23;101665.88;7399484;19;20032;-65
2022/03/03 01:54:39;;;;;;;30.23;18.17;;;;;;;-3.40;70.19;101661.41;7397584;19;20023;-66
2022/03/03 01:57:08;;;;;;;31.50;18.08;;;;;;;-3.42;70.38;101663.91;7397170;19;20022;-65
2022/03/03 01:59:37;;;;;;;33.20;19.45;;;;;;;-3.45;70.27;101662.06;7399248;19;20019;-66
2022/03/03 02:02:08;;;;;;;29.85;17.65;;;;;;;-3.45;70.30;101656.03;7396952;19;20011;-65
2022/03/03 02:04:36;;;;;;;30.85;18.23;;;;;;;-3.48;70.37;101643.94;7396734;19;20053;-65
2022/03/03 02:07:05;;;;;;;29.77;18.10;;;;;;;-3.49;70.41;101646.41;7397350;19;20015;-65
2022/03/03 02:09:33;;;;;;;32.00;18.25;;;;;;;-3.51;70.43;101648.06;7398479;19;20492;-67
2022/03/03 02:12:05;;;;;;;28.27;17.95;;;;;;;-3.54;70.75;101638.47;7394588;19;20019;-65
2022/03/03 02:14:43;;;;;;;33.22;21.55;;;;;;;-3.57;70.86;101628.09;7398698;19;20039;-65
2022/03/03 02:17:11;;;;;;;27.35;19.10;;;;;;;-3.60;70.95;101630.50;7397023;19;20015;-65
2022/03/03 02:19:39;;;;;;;29.33;19.08;;;;;;;-3.64;70.95;101631.13;7396532;19;20031;-66
2022/03/03 02:22:11;;;;;;;28.13;17.55;;;;;;;-3.66;70.83;101625.06;7398445;19;20018;-65
2022/03/03 02:24:40;;;;;;;31.65;19.02;;;;;;;-3.69;71.07;101614.63;7398360;19;20037;-65
2022/03/03 02:27:10;;;;;;;31.75;20.70;;;;;;;-3.72;71.32;101609.38;7396596;19;20482;-65
2022/03/03 02:29:39;;;;;;;32.65;20.20;;;;;;;-3.75;71.31;101610.09;7397940;19;20570;-65
2022/03/03 02:32:09;;;;;;;32.92;19.60;;;;;;;-3.79;71.59;101606.50;7398130;19;20019;-65
2022/03/03 02:34:38;;;;;;;27.98;18.25;;;;;;;-3.79;71.48;101603.03;7396381;19;20018;-65
2022/03/03 02:37:09;;;;;;;30.33;16.92;;;;;;;-3.82;71.63;101606.31;7398000;19;20031;-65
2022/03/03 02:39:37;;;;;;;31.23;18.92;;;;;;;-3.84;71.52;101604.47;7398284;19;20023;-66
2022/03/03 02:42:09;;;;;;;35.85;21.33;;;;;;;-3.86;71.55;101601.84;7395942;19;20024;-65
2022/03/03 02:44:37;;;;;;;35.13;21.33;;;;;;;-3.88;71.86;101593.22;7396110;19;20015;-66
2022/03/03 02:47:06;;;;;;;34.97;20.55;;;;;;;-3.95;72.08;101589.44;7396433;19;20027;-65
2022/03/03 02:49:34;;;;;;;30.15;19.05;;;;;;;-3.93;71.88;101594.63;7397476;19;20022;-65
2022/03/03 02:52:02;;;;;;;34.20;20.23;;;;;;;-3.96;71.90;101591.94;7397398;19;20015;-65
2022/03/03 02:54:46;;;;;;;28.88;18.95;;;;;;;-3.98;72.05;101593.50;7394512;19;20027;-66
2022/03/03 02:59:55;;;;;;;33.28;18.85;;;;;;;-4.03;71.99;101606.13;7398157;19;20022;-66
2022/03/03 03:02:23;;;;;;;28.42;19.17;;;;;;;-4.04;72.10;101598.31;7395335;19;20018;-66
2022/03/03 03:04:51;;;;;;;28.35;19.65;;;;;;;-4.07;72.05;101599.06;7395161;19;20014;-66
2022/03/03 03:07:20;;;;;;;31.77;20.05;;;;;;;-4.09;72.20;101593.84;7395086;19;20022;-66
2022/03/03 03:09:50;;;;;;;33.90;19.55;;;;;;;-4.10;72.19;101588.66;7396401;19;20498;-66
2022/03/03 03:12:19;;;;;;;31.88;20.42;;;;;;;-4.09;72.44;101595.56;7395566;19;20018;-66
2022/03/03 03:14:47;;;;;;;31.98;21.20;;;;;;;-4.11;72.65;101592.91;7397326;19;20525;-67
2022/03/03 03:17:15;;;;;;;33.92;20.98;;;;;;;-4.10;72.56;101589.53;7398214;19;20031;-65
2022/03/03 03:19:43;;;;;;;36.75;20.90;;;;;;;-4.10;72.66;101586.09;7398186;19;20018;-67
2022/03/03 03:22:11;;;;;;;32.95;19.65;;;;;;;-4.10;72.75;101584.41;7394702;19;20018;-65
2022/03/03 03:24:40;;;;;;;31.95;20.02;;;;;;;-4.10;72.66;101579.28;7395752;19;20035;-65
2022/03/03 03:27:10;;;;;;;32.20;20.00;;;;;;;-4.09;72.72;101568.22;7394581;19;20075;-65
2022/03/03 03:29:38;;;;;;;31.67;19.60;;;;;;;-4.05;72.56;101571.81;7394527;19;20018;-65
2022/03/03 03:32:07;;;;;;;35.35;19.65;;;;;;;-4.02;72.88;101576.22;7394476;19;20362;-66
2022/03/03 03:34:35;;;;;;;31.08;18.98;;;;;;;-3.98;72.89;101573.00;7394218;19;20031;-66
2022/03/03 03:37:04;;;;;;;33.92;20.10;;;;;;;-3.95;72.85;101570.63;7395654;19;20431;-66
2022/03/03 03:39:32;;;;;;;35.22;21.08;;;;;;;-3.91;72.91;101569.97;7394118;19;20039;-66
2022/03/03 03:42:00;;;;;;;33.17;19.20;;;;;;;-3.89;72.70;101565.81;7395812;19;20014;-66
2022/03/03 03:44:31;;;;;;;33.40;20.35;;;;;;;-3.86;72.60;101563.38;7395591;19;20429;-66
2022/03/03 03:46:59;;;;;;;31.88;18.77;;;;;;;-3.83;72.50;101558.41;7394245;19;20035;-66
2022/03/03 03:49:28;;;;;;;30.90;19.35;;;;;;;-3.81;72.47;101566.19;7395769;19;20039;-66
2022/03/03 03:51:56;;;;;;;29.88;19.52;;;;;;;-3.82;72.74;101556.72;7395770;19;20025;-66
2022/03/03 03:54:24;;;;;;;34.00;19.85;;;;;;;-3.78;72.66;101556.06;7394082;19;20027;-66
2022/03/03 03:56:52;;;;;;;35.25;20.33;;;;;;;-3.78;72.88;101548.38;7395408;19;20027;-66
2022/03/03 03:59:20;;;;;;;34.53;21.40;;;;;;;-3.78;72.87;101538.13;7395364;19;20039;-66
2022/03/03 04:01:51;;;;;;;30.85;20.25;;;;;;;-3.80;73.02;101538.03;7392924;19;20373;-65
2022/03/03 04:04:19;;;;;;;32.28;19.20;;;;;;;-3.79;72.75;101547.50;7393829;19;20039;-66
2022/03/03 04:06:48;;;;;;;28.85;19.13;;;;;;;-3.80;72.91;101538.03;7394510;19;20015;-66
2022/03/03 04:09:16;;;;;;;33.72;19.98;;;;;;;-3.79;72.89;101541.47;7392921;19;20527;-66
2022/03/03 04:11:44;;;;;;;33.30;18.98;;;;;;;-3.83;72.71;101525.09;7393222;19;20022;-66
2022/03/03 04:14:13;;;;;;;34.78;19.80;;;;;;;-3.83;72.88;101527.66;7392951;19;20027;-66
2022/03/03 04:16:41;;;;;;;31.27;19.65;;;;;;;-3.85;72.92;101530.94;7392521;19;20471;-66
2022/03/03 04:19:11;;;;;;;31.17;19.00;;;;;;;-3.89;72.96;101529.91;7392921;19;20022;-66
2022/03/03 04:21:40;;;;;;;31.23;19.48;;;;;;;-3.90;73.10;101534.94;7393209;19;20027;-66
2022/03/03 04:24:10;;;;;;;32.17;19.20;;;;;;;-3.93;73.22;101525.41;7392385;19;20585;-65
2022/03/03 04:26:38;;;;;;;34.50;19.02;;;;;;;-3.97;73.12;101526.97;7391962;19;20507;-65
2022/03/03 04:29:06;;;;;;;30.25;18.33;;;;;;;-3.98;73.28;101529.44;7394426;19;20027;-65
2022/03/03 04:31:35;;;;;;;30.90;20.15;;;;;;;-4.01;73.08;101537.84;7394236;19;20019;-66
2022/03/03 04:34:03;;;;;;;30.10;18.45;;;;;;;-4.03;73.33;101523.19;7393690;19;20064;-65
2022/03/03 04:36:33;;;;;;;30.13;19.40;;;;;;;-4.05;73.09;101525.69;7397301;19;20015;-66
2022/03/03 04:39:02;;;;;;;30.30;19.30;;;;;;;-4.08;73.21;101515.28;7399030;19;20421;-66
2022/03/03 04:41:30;;;;;;;30.80;17.50;;;;;;;-4.11;73.41;101504.88;7401245;19;20087;-65
2022/03/03 04:43:58;;;;;;;31.08;19.48;;;;;;;-4.15;73.44;101500.41;7398542;19;20018;-66
2022/03/03 04:46:26;;;;;;;34.40;19.35;;;;;;;-4.19;73.47;101494.25;7398595;19;20039;-66
2022/03/03 04:48:59;;;;;;;31.73;19.35;;;;;;;-4.22;73.33;101508.56;7398486;19;20031;-65
2022/03/03 04:51:27;;;;;;;33.60;21.30;;;;;;;-4.25;73.52;101509.31;7401782;19;20026;-65
2022/03/03 04:53:58;;;;;;;31.00;21.00;;;;;;;-4.29;73.27;101518.50;7399784;19;20027;-64
2022/03/03 04:56:26;;;;;;;35.58;22.00;;;;;;;-4.31;73.47;101517.56;7398522;19;20018;-66
2022/03/03 04:58:54;;;;;;;41.38;21.95;;;;;;;-4.31;73.46;101521.78;7397946;19;20022;-65
2022/03/03 05:01:22;;;;;;;39.10;21.85;;;;;;;-4.32;73.54;101530.28;7397947;19;20022;-65
2022/03/03 05:03:50;;;;;;;45.85;26.38;;;;;;;-4.33;73.88;101520.84;7398073;19;20035;-65
2022/03/03 05:06:19;;;;;;;45.60;24.95;;;;;;;-4.31;74.02;101524.34;7398360;19;20043;-65
2022/03/03 05:08:47;;;;;;;42.75;24.25;;;;;;;-4.28;73.71;101524.53;7397781;19;20026;-65
2022/03/03 05:11:19;;;;;;;49.72;24.50;;;;;;;-4.25;73.69;101514.41;7400404;19;20035;-65
2022/03/03 05:13:48;;;;;;;46.30;24.35;;;;;;;-4.22;73.83;101514.59;7399977;19;20475;-65
2022/03/03 05:16:16;;;;;;;54.03;26.10;;;;;;;-4.20;73.91;101506.97;7397465;19;20018;-66
2022/03/03 05:18:44;;;;;;;40.58;23.33;;;;;;;-4.19;74.22;101498.50;7397379;19;20018;-65
2022/03/03 05:21:12;;;;;;;38.50;22.45;;;;;;;-4.23;73.89;101494.91;7397336;19;20022;-65
2022/03/03 05:23:40;;;;;;;39.20;23.33;;;;;;;-4.23;74.24;101515.41;7397143;19;20479;-64
2022/03/03 05:26:09;;;;;;;42.75;23.80;;;;;;;-4.24;74.30;101520.44;7397989;19;20429;-65
2022/03/03 05:28:40;;;;;;;39.38;24.70;;;;;;;-4.24;74.35;101495.69;7397336;19;20022;-65
2022/03/03 05:31:08;;;;;;;40.30;22.60;;;;;;;-4.23;74.72;101506.81;7398863;19;20416;-66
2022/03/03 05:33:37;;;;;;;38.42;25.10;;;;;;;-4.25;74.34;101511.88;7398606;19;20475;-66
2022/03/03 05:36:07;;;;;;;36.42;22.05;;;;;;;-4.24;74.38;101515.31;7397582;19;20031;-65
2022/03/03 05:38:36;;;;;;;39.03;24.88;;;;;;;-4.23;74.38;101515.41;7399294;19;20035;-65
2022/03/03 05:41:06;;;;;;;37.15;23.33;;;;;;;-4.21;74.42;101518.03;7399244;19;20014;-65
2022/03/03 05:43:35;;;;;;;38.58;23.73;;;;;;;-4.19;74.35;101512.19;7399325;19;20018;-66
2022/03/03 05:46:06;;;;;;;41.85;23.40;;;;;;;-4.18;75.30;101496.00;7395639;19;20041;-65
2022/03/03 05:48:35;;;;;;;43.03;22.67;;;;;;;-4.17;74.52;101495.22;7395607;19;20025;-65
2022/03/03 05:51:03;;;;;;;36.38;22.90;;;;;;;-4.19;74.67;101491.66;7396236;19;20014;-66
2022/03/03 05:53:31;;;;;;;40.03;22.30;;;;;;;-4.18;74.83;101510.47;7398128;19;20018;-67
2022/03/03 05:56:03;;;;;;;36.30;22.40;;;;;;;-4.19;74.56;101517.31;7396366;19;20023;-69
2022/03/03 05:58:42;;;;;;;42.72;23.35;;;;;;;-4.21;74.76;101521.47;7397673;19;20035;-65
2022/03/03 06:01:13;;;;;;;39.10;23.90;;;;;;;-4.21;74.69;101529.16;7394661;19;20531;-66
2022/03/03 06:03:42;;;;;;;41.67;24.98;;;;;;;-4.22;75.23;101529.97;7398317;19;20014;-67
2022/03/03 06:06:17;;;;;;;42.95;25.77;;;;;;;-4.21;74.94;101526.59;7394722;19;20018;-66
2022/03/03 06:08:58;;;;;;;46.15;26.50;;;;;;;-4.19;75.41;101532.69;7395079;19;20022;-65
2022/03/03 06:11:28;;;;;;;42.65;26.88;;;;;;;-4.17;75.53;101519.94;7395894;19;20025;-65
2022/03/03 06:14:07;;;;;;;38.72;23.98;;;;;;;-4.15;75.16;101518.34;7396412;19;20018;-65
2022/03/03 06:16:39;;;;;;;35.60;23.13;;;;;;;-4.14;76.06;101520.09;7395599;19;20405;-66
2022/03/03 06:19:07;;;;;;;43.05;23.92;;;;;;;-4.13;75.69;101530.44;7395083;19;20019;-65
2022/03/03 06:21:35;;;;;;;43.35;24.77;;;;;;;-4.13;75.71;101517.63;7396888;19;20031;-66
2022/03/03 06:24:05;;;;;;;43.92;23.25;;;;;;;-4.11;75.39;101508.34;7396819;19;20018;-66
2022/03/03 06:26:36;;;;;;;40.55;24.30;;;;;;;-4.07;75.15;101508.47;7395136;19;20022;-67
2022/03/03 06:29:05;;;;;;;38.15;23.58;;;;;;;-4.04;75.55;101524.88;7394440;19;20014;-67
2022/03/03 06:31:33;;;;;;;38.03;23.58;;;;;;;-4.03;75.17;101524.09;7396727;19;20031;-67
2022/03/03 06:34:03;;;;;;;39.60;23.33;;;;;;;-4.01;76.49;101521.59;7396677;19;20019;-67
2022/03/03 06:36:32;;;;;;;42.17;25.02;;;;;;;-4.01;75.89;101504.53;7395007;19;20043;-67
2022/03/03 06:39:00;;;;;;;42.03;25.30;;;;;;;-3.99;75.70;101497.81;7394645;19;20022;-67
2022/03/03 06:41:29;;;;;;;43.17;22.92;;;;;;;-3.98;76.17;101488.41;7396904;19;20027;-67
2022/03/03 06:43:57;;;;;;;44.35;24.80;;;;;;;-3.97;75.75;101485.94;7396608;19;20473;-67
2022/03/03 06:46:25;;;;;;;39.47;23.70;;;;;;;-3.96;75.68;101487.69;7395523;19;20031;-67
2022/03/03 06:48:53;;;;;;;44.22;23.83;;;;;;;-3.93;75.64;101494.66;7396059;19;20022;-70
2022/03/03 06:51:25;;;;;;;35.97;22.52;;;;;;;-3.93;75.80;101492.97;7397125;19;20015;-66
2022/03/03 06:53:57;;;;;;;36.92;22.88;;;;;;;-3.90;76.40;101499.94;7394850;19;20031;-67
2022/03/03 06:56:26;;;;;;;36.65;23.48;;;;;;;-3.90;76.26;101499.94;7395338;19;20018;-66
2022/03/03 06:58:56;;;;;;;39.45;23.48;;;;;;;-3.86;76.34;101503.53;7395499;19;20042;-67
2022/03/03 07:01:25;;;;;;;41.60;23.30;;;;;;;-3.84;76.04;101513.06;7394658;19;20018;-67
2022/03/03 07:03:54;;;;;;;37.22;24.15;;;;;;;-3.80;75.73;101522.66;7396006;19;20363;-67
2022/03/03 07:06:25;;;;;;;37.90;23.45;;;;;;;-3.75;76.27;101522.91;7394826;19;20026;-67
2022/03/03 07:08:56;;;;;;;41.30;25.88;;;;;;;-3.72;76.63;101528.16;7395097;19;20032;-67
2022/03/03 07:11:25;;;;;;;45.60;26.25;;;;;;;-3.68;76.35;101542.03;7394668;19;20026;-67
2022/03/03 07:13:53;;;;;;;45.20;27.73;;;;;;;-3.65;76.42;101545.63;7395851;19;20487;-67
2022/03/03 07:16:32;;;;;;;40.60;25.90;;;;;;;-3.61;77.28;101544.97;7394458;19;20025;-67
2022/03/03 07:19:04;;;;;;;43.25;26.63;;;;;;;-3.56;76.85;101544.28;7393464;19;20023;-67
2022/03/03 07:21:44;;;;;;;39.17;25.77;;;;;;;-3.50;76.19;101547.16;7394176;19;20014;-68
2022/03/03 07:24:17;;;;;;;40.83;24.10;;;;;;;-3.46;76.36;101543.97;7395755;19;20019;-67
2022/03/03 07:26:49;;;;;;;41.78;25.85;;;;;;;-3.38;76.08;101550.31;7394711;19;20026;-68
2022/03/03 07:29:19;;;;;;;43.53;26.48;;;;;;;-3.32;75.92;101554.88;7394655;19;20053;-67
2022/03/03 07:31:59;;;;;;;47.25;26.58;;;;;;;-3.28;76.29;101539.69;7395829;19;20032;-67
2022/03/03 07:34:31;;;;;;;37.20;25.42;;;;;;;-3.22;75.82;101539.13;7393991;19;20018;-67
2022/03/03 07:37:06;;;;;;;43.08;26.38;;;;;;;-3.16;75.97;101533.38;7394098;19;20010;-65
2022/03/03 07:39:41;;;;;;;44.67;27.80;;;;;;;-3.09;75.94;101538.00;7393640;19;20022;-65
2022/03/03 07:42:13;;;;;;;48.10;27.92;;;;;;;-3.01;76.21;101541.81;7395609;19;20523;-65
2022/03/03 07:44:41;;;;;;;43.17;28.15;;;;;;;-2.92;76.37;101546.47;7394608;19;20511;-66
2022/03/03 07:47:10;;;;;;;42.95;26.17;;;;;;;-2.83;76.26;101538.31;7395357;19;20074;-65
2022/03/03 07:49:40;;;;;;;47.15;28.33;;;;;;;-2.75;76.28;101548.97;7393491;19;20479;-66
2022/03/03 07:52:11;;;;;;;47.90;27.85;;;;;;;-2.66;76.14;101554.50;7395899;19;20181;-66
2022/03/03 07:54:39;;;;;;;40.42;25.27;;;;;;;-2.59;75.94;101548.84;7394045;19;20015;-66
2022/03/03 07:57:15;;;;;;;44.10;28.63;;;;;;;-2.51;76.11;101550.06;7395062;19;20010;-65
2022/03/03 07:59:49;;;;;;;44.30;25.77;;;;;;;-2.42;75.98;101559.00;7394791;19;20504;-66
2022/03/03 08:02:22;;;;;;;42.50;27.05;;;;;;;-2.34;76.08;101557.63;7394914;19;20018;-65
2022/03/03 08:04:58;;;;;;;41.17;28.05;;;;;;;-2.26;75.89;101551.16;7395015;19;20045;-65
2022/03/03 08:07:30;;;;;;;42.42;26.52;;;;;;;-2.18;75.80;101552.34;7392699;19;20479;-65
2022/03/03 08:10:01;;;;;;;45.47;28.08;;;;;;;-2.10;75.59;101547.53;7393644;19;20471;-65
2022/03/03 08:12:33;;;;;;;37.58;25.42;;;;;;;-2.03;75.50;101554.69;7399050;19;20558;-65
2022/03/03 08:15:02;;;;;;;41.95;26.70;;;;;;;-1.96;75.30;101553.25;7398981;19;20483;-66
2022/03/03 08:17:31;;;;;;;38.63;25.98;;;;;;;-1.89;75.55;101557.00;7401661;19;20045;-66
2022/03/03 08:19:59;;;;;;;46.13;27.58;;;;;;;-1.82;75.45;101556.41;7401796;19;20018;-66
2022/03/03 08:22:31;;;;;;;46.35;28.80;;;;;;;-1.81;75.27;101551.34;7401871;19;20078;-66
2022/03/03 08:25:00;;;;;;;40.53;27.75;;;;;;;-1.67;75.27;101563.91;7401471;19;20035;-66
2022/03/03 08:27:29;;;;;;;44.10;27.45;;;;;;;-1.62;74.91;101561.53;7401978;19;20022;-66
2022/03/03 08:30:04;;;;;;;45.08;27.88;;;;;;;-1.55;74.88;101560.97;7398666;19;20421;-67
2022/03/03 08:32:36;;;;;;;43.92;27.33;;;;;;;-1.48;74.73;101568.09;7398357;19;20596;-66
2022/03/03 08:35:13;;;;;;;41.83;27.38;;;;;;;-1.40;74.53;101565.84;7400642;19;20027;-67
2022/03/03 08:37:53;;;;;;;40.60;25.38;;;;;;;-1.33;74.57;101566.16;7401926;19;20015;-66
2022/03/03 08:40:24;;;;;;;41.63;27.02;;;;;;;-1.26;74.24;101572.44;7401767;19;20046;-66
2022/03/03 08:42:56;;;;;;;44.17;26.85;;;;;;;-1.22;74.09;101571.72;7401762;19;20015;-66
2022/03/03 08:45:28;;;;;;;45.85;28.17;;;;;;;-1.13;74.07;101570.34;7398734;19;20022;-66
2022/03/03 08:48:00;;;;;;;41.70;27.33;;;;;;;-1.08;73.88;101561.97;7400600;19;20510;-66
2022/03/03 08:50:30;;;;;;;40.08;27.13;;;;;;;-1.01;73.62;101557.94;7401588;19;20375;-66
2022/03/03 08:53:01;;;;;;;40.22;26.70;;;;;;;-0.96;73.65;101563.25;7398723;19;20019;-66
2022/03/03 08:55:30;;;;;;;41.20;27.23;;;;;;;-0.88;73.29;101562.75;7398840;19;20015;-66
2022/03/03 08:57:58;;;;;;;37.83;25.55;;;;;;;-0.82;73.09;101557.81;7398527;19;20018;-66
2022/03/03 09:00:28;;;;;;;42.78;25.45;;;;;;;-0.75;73.24;101561.50;7398256;19;20035;-65
2022/03/03 09:02:56;;;;;;;42.33;26.85;;;;;;;-0.67;73.03;101557.53;7400681;19;20018;-65
2022/03/03 09:05:24;;;;;;;38.33;26.40;;;;;;;-0.60;72.95;101547.44;7397986;19;20033;-66
2022/03/03 09:07:53;;;;;;;41.40;26.35;;;;;;;-0.53;72.63;101557.16;7398182;19;20122;-65
2022/03/03 09:10:24;;;;;;;43.20;26.95;;;;;;;-0.44;72.74;101541.13;7398214;19;20039;-65
2022/03/03 09:12:53;;;;;;;46.05;27.65;;;;;;;-0.36;72.38;101548.31;7397099;19;20475;-65
2022/03/03 09:15:21;;;;;;;42.05;27.48;;;;;;;-0.28;72.32;101547.72;7398486;19;20027;-65
2022/03/03 09:17:49;;;;;;;39.65;27.45;;;;;;;-0.23;72.11;101548.78;7397002;19;20479;-66
2022/03/03 09:20:17;;;;;;;42.60;27.67;;;;;;;-0.13;71.91;101547.41;7397456;19;20126;-65
2022/03/03 09:22:47;;;;;;;40.00;25.95;;;;;;;-0.06;71.50;101541.63;7399016;19;20095;-66
2022/03/03 09:25:16;;;;;;;40.88;27.17;;;;;;;0.01;70.88;101543.59;7397289;19;20035;-66
2022/03/03 09:27:47;;;;;;;40.83;26.55;;;;;;;0.07;71.30;101535.19;7397221;19;20022;-66
2022/03/03 09:30:16;;;;;;;45.67;29.10;;;;;;;0.14;70.71;101539.75;7397704;19;20014;-66
2022/03/03 09:32:44;;;;;;;41.53;27.40;;;;;;;0.20;70.81;101534.75;7399786;19;20026;-66
2022/03/03 09:35:13;;;;;;;41.83;28.67;;;;;;;0.25;70.64;101534.94;7398259;19;20035;-66
2022/03/03 09:37:41;;;;;;;44.97;29.52;;;;;;;0.33;70.77;101538.66;7399193;19;20018;-66
2022/03/03 09:40:11;;;;;;;43.78;29.10;;;;;;;0.40;70.23;101535.41;7396862;19;20020;-66
2022/03/03 09:42:39;;;;;;;45.33;29.50;;;;;;;0.47;70.37;101539.97;7399007;19;20486;-66
2022/03/03 09:45:12;;;;;;;41.53;27.30;;;;;;;0.56;70.01;101543.69;7398272;19;20035;-66
2022/03/03 09:47:41;;;;;;;42.33;27.15;;;;;;;0.64;69.84;101544.78;7399685;19;20029;-66
2022/03/03 09:50:10;;;;;;;40.55;27.33;;;;;;;0.71;69.77;101538.09;7396767;19;20019;-66
2022/03/03 09:52:38;;;;;;;42.35;28.00;;;;;;;0.78;69.60;101535.78;7399348;19;20019;-66
2022/03/03 09:55:08;;;;;;;43.38;27.75;;;;;;;0.83;69.79;101535.91;7395500;19;20014;-66
2022/03/03 09:57:36;;;;;;;42.65;28.10;;;;;;;0.92;69.73;101540.50;7395843;19;20429;-66
2022/03/03 10:00:08;;;;;;;42.83;27.50;;;;;;;0.98;69.43;101538.97;7398773;19;20015;-65
2022/03/03 10:02:55;;;;;;;43.70;28.85;;;;;;;1.06;69.28;101544.38;7398765;19;20488;-66
2022/03/03 10:05:31;;;;;;;43.58;28.17;;;;;;;1.14;69.04;101548.06;7396108;19;20380;-66
2022/03/03 10:08:04;;;;;;;41.17;28.67;;;;;;;1.20;69.08;101547.38;7399155;19;20031;-66
2022/03/03 10:10:32;;;;;;;46.78;29.95;;;;;;;1.27;68.83;101553.59;7398536;19;20327;-66
2022/03/03 10:13:00;;;;;;;47.95;29.35;;;;;;;1.33;68.58;101548.63;7395901;19;20022;-65
2022/03/03 10:15:30;;;;;;;42.97;28.77;;;;;;;1.41;68.56;101552.28;7396354;19;20019;-64
2022/03/03 10:18:03;;;;;;;45.75;29.00;;;;;;;1.48;68.43;101545.59;7395408;19;20426;-66
2022/03/03 10:20:37;;;;;;;44.22;28.88;;;;;;;1.57;68.58;101547.56;7396869;19;20027;-68
2022/03/03 10:23:08;;;;;;;;;;;;;;;1.63;67.97;101548.59;7399111;19;20035;-67
2022/03/03 10:25:38;;;;;;;47.67;29.67;;;;;;;1.71;67.84;101559.16;7396120;19;19931;-67
2022/03/03 10:28:14;;;;;;;45.63;30.60;;;;;;;1.77;67.75;101554.16;7397941;19;20015;-66
2022/03/03 10:30:53;;;;;;;49.67;30.35;;;;;;;1.83;67.59;101565.53;7397384;19;20018;-66
2022/03/03 10:33:28;;;;;;;48.85;30.88;;;;;;;1.87;67.73;101554.41;7393365;19;20015;-66
2022/03/03 10:36:02;;;;;;;47.80;31.45;;;;;;;1.91;67.39;101562.31;7395715;19;20023;-67
2022/03/03 10:38:30;;;;;;;48.10;31.63;;;;;;;1.98;67.41;101559.88;7395885;19;20018;-66
2022/03/03 10:40:59;;;;;;;48.60;30.58;;;;;;;2.00;67.39;101564.25;7395082;19;20026;-67
2022/03/03 10:43:27;;;;;;;54.50;31.42;;;;;;;2.04;67.46;101566.09;7394584;19;20385;-66
2022/03/03 10:45:56;;;;;;;49.50;29.92;;;;;;;2.09;67.64;101564.50;7395646;19;20358;-67
2022/03/03 10:48:28;;;;;;;47.28;31.45;;;;;;;2.14;67.56;101556.88;7396071;19;20015;-67
2022/03/03 10:51:00;;;;;;;46.03;31.05;;;;;;;2.18;67.72;101552.66;7397926;19;20023;-66
2022/03/03 10:53:29;;;;;;;61.47;38.75;;;;;;;2.22;68.31;101541.53;7395409;19;20018;-67
2022/03/03 10:56:06;;;;;;;67.80;39.40;;;;;;;2.29;68.75;101558.97;7394710;19;20382;-65
2022/03/03 10:58:52;;;;;;;68.80;40.45;;;;;;;2.31;69.11;101569.38;7395816;19;20018;-66
2022/03/03 11:01:23;;;;;;;70.25;41.22;;;;;;;2.33;69.20;101562.53;7396826;19;20518;-66
2022/03/03 11:03:54;;;;;;;67.60;40.00;;;;;;;2.31;69.11;101570.22;7397388;19;20018;-65
2022/03/03 11:06:25;;;;;;;74.80;42.00;;;;;;;2.24;69.51;101574.38;7396860;19;20027;-67
2022/03/03 11:08:55;;;;;;;69.63;39.90;;;;;;;2.21;69.50;101574.31;7395052;19;20017;-67
2022/03/03 11:11:24;;;;;;;87.95;46.55;;;;;;;2.16;70.03;101562.06;7396927;19;20014;-66
2022/03/03 11:13:53;;;;;;;79.95;43.38;;;;;;;2.16;70.16;101570.72;7394576;19;20027;-66
2022/03/03 11:16:24;;;;;;;73.93;42.75;;;;;;;2.11;70.07;101568.00;7394895;19;20019;-67
2022/03/03 11:18:56;;;;;;;80.43;44.08;;;;;;;2.08;70.21;101574.81;7394321;19;20356;-67
2022/03/03 11:21:24;;;;;;;76.22;41.08;;;;;;;2.03;70.10;101579.00;7393940;19;20023;-68
2022/03/03 11:23:58;;;;;;;74.13;40.22;;;;;;;1.92;70.62;101573.53;7395667;19;20390;-66
2022/03/03 11:26:29;;;;;;;73.80;41.53;;;;;;;1.92;70.60;101578.69;7394132;19;20032;-67